createdAt,value
2018-12-24T00:02:35.532Z,0.90
2018-12-24T00:07:21.672Z,1.10
2018-12-24T00:12:08.380Z,0.77
2018-12-24T00:16:55.196Z,1.10
2018-12-24T00:21:41.373Z,1.00
2018-12-24T00:26:27.226Z,1.30
2018-12-24T00:31:12.949Z,1.10
2018-12-24T00:35:59.096Z,1.33
2018-12-24T00:40:44.804Z,1.37
2018-12-24T00:45:30.961Z,1.60
2018-12-24T00:50:16.671Z,1.10
2018-12-24T00:55:02.464Z,1.40
2018-12-24T00:59:48.174Z,1.00
2018-12-24T01:04:34.379Z,1.10
2018-12-24T01:09:20.107Z,1.10
2018-12-24T01:14:06.763Z,1.20
2018-12-24T01:18:52.509Z,1.00
2018-12-24T01:23:38.250Z,1.10
2018-12-24T01:28:23.916Z,1.20
2018-12-24T01:33:09.674Z,1.27
2018-12-24T01:37:55.446Z,1.10
2018-12-24T01:42:41.296Z,1.07
2018-12-24T01:47:27.153Z,1.20
2018-12-24T01:52:12.912Z,1.00
2018-12-24T01:56:58.604Z,0.80
2018-12-24T02:01:44.306Z,0.80
2018-12-24T02:06:30.052Z,0.60
2018-12-24T02:11:15.764Z,0.60
2018-12-24T02:16:01.480Z,0.43
2018-12-24T02:20:47.207Z,0.50
2018-12-24T02:25:32.929Z,0.37
2018-12-24T02:30:18.719Z,0.40
2018-12-24T02:35:04.403Z,0.90
2018-12-24T02:39:50.173Z,0.50
2018-12-24T02:44:35.931Z,0.40
2018-12-24T02:49:21.767Z,0.80
2018-12-24T02:54:07.623Z,0.47
2018-12-24T02:58:53.387Z,0.70
2018-12-24T03:03:39.138Z,0.40
2018-12-24T03:08:24.953Z,0.70
2018-12-24T03:13:10.585Z,0.70
2018-12-24T03:17:56.303Z,0.73
2018-12-24T03:22:41.948Z,0.50
2018-12-24T03:27:27.674Z,0.60
2018-12-24T03:32:13.312Z,0.20
2018-12-24T03:36:59.052Z,0.40
2018-12-24T03:41:44.790Z,0.57
2018-12-24T03:46:30.574Z,0.70
2018-12-24T03:51:16.343Z,0.70
2018-12-24T03:56:02.116Z,0.50
2018-12-24T04:00:47.823Z,0.50
2018-12-24T04:05:33.528Z,0.20
2018-12-24T04:10:19.262Z,0.20
2018-12-24T04:15:05.106Z,0.20
2018-12-24T04:19:50.815Z,0.10
2018-12-24T04:24:36.656Z,0.30
2018-12-24T04:29:22.391Z,0.37
2018-12-24T04:34:08.078Z,0.40
2018-12-24T04:38:53.808Z,0.50
2018-12-24T04:43:39.494Z,0.30
2018-12-24T04:48:25.295Z,0.33
2018-12-24T04:53:10.950Z,0.70
2018-12-24T04:57:56.723Z,0.70
2018-12-24T05:02:42.419Z,0.40
2018-12-24T05:07:28.147Z,0.20
2018-12-24T05:12:14.332Z,0.10
2018-12-24T05:17:00.262Z,0.10
2018-12-24T05:21:45.910Z,0.10
2018-12-24T05:26:31.734Z,0.10
2018-12-24T05:31:17.504Z,0.10
2018-12-24T05:36:03.251Z,0.10
2018-12-24T05:40:49.061Z,0.37
2018-12-24T05:45:34.830Z,0.30
2018-12-24T05:50:20.615Z,0.10
2018-12-24T05:55:06.322Z,0.57
2018-12-24T05:59:52.040Z,0.40
2018-12-24T06:04:37.799Z,0.20
2018-12-24T06:09:23.533Z,0.50
2018-12-24T06:14:09.232Z,0.50
2018-12-24T06:18:55.140Z,0.30
2018-12-24T06:23:40.840Z,0.20
2018-12-24T06:28:26.648Z,0.10
2018-12-24T06:33:12.360Z,0.30
2018-12-24T06:37:58.112Z,0.10
2018-12-24T06:42:43.823Z,0.27
2018-12-24T06:47:29.593Z,0.30
2018-12-24T06:52:15.555Z,0.20
2018-12-24T06:57:03.771Z,0.30
2018-12-24T07:01:49.537Z,0.30
2018-12-24T07:06:36.740Z,0.60
2018-12-24T07:11:22.412Z,1.10
2018-12-24T07:16:08.188Z,0.40
2018-12-24T07:20:53.889Z,0.60
2018-12-24T07:25:39.663Z,0.57
2018-12-24T07:30:25.439Z,0.30
2018-12-24T07:35:11.257Z,0.47
2018-12-24T07:39:57.024Z,0.20
2018-12-24T07:44:42.742Z,0.10
2018-12-24T07:49:28.428Z,0.30
2018-12-24T07:54:14.234Z,0.40
2018-12-24T07:58:59.979Z,0.20
2018-12-24T08:03:45.858Z,0.10
2018-12-24T08:08:31.650Z,0.30
2018-12-24T08:13:17.623Z,0.30
2018-12-24T08:18:03.590Z,0.40
2018-12-24T08:22:49.690Z,0.20
2018-12-24T08:27:35.471Z,0.23
2018-12-24T08:32:21.836Z,0.10
2018-12-24T08:37:07.774Z,0.70
2018-12-24T08:41:53.815Z,0.20
2018-12-24T08:46:39.684Z,0.60
2018-12-24T08:51:28.036Z,0.40
2018-12-24T08:56:13.863Z,0.73
2018-12-24T09:00:59.679Z,0.50
2018-12-24T09:05:45.580Z,0.40
2018-12-24T09:10:31.561Z,0.20
2018-12-24T09:15:17.898Z,0.13
2018-12-24T09:20:03.905Z,0.20
2018-12-24T09:24:49.709Z,0.30
2018-12-24T09:29:35.475Z,0.20
2018-12-24T09:34:21.495Z,0.40
2018-12-24T09:39:08.694Z,0.50
2018-12-24T09:43:54.634Z,0.40
2018-12-24T09:48:40.390Z,0.27
2018-12-24T09:53:26.285Z,1.00
2018-12-24T09:58:12.107Z,1.70
2018-12-24T10:03:06.768Z,1.20
2018-12-24T10:07:52.682Z,2.47
2018-12-24T10:12:38.454Z,1.23
2018-12-24T10:17:25.684Z,2.20
2018-12-24T10:22:11.599Z,3.40
2018-12-24T10:26:57.309Z,1.70
2018-12-24T10:31:43.182Z,7.80
2018-12-24T10:36:28.967Z,2.10
2018-12-24T10:41:21.088Z,2.30
2018-12-24T10:46:07.038Z,1.80
2018-12-24T10:50:52.882Z,2.70
2018-12-24T10:55:38.740Z,2.27
2018-12-24T11:00:24.546Z,2.57
2018-12-24T11:05:10.641Z,3.40
2018-12-24T11:09:56.545Z,3.87
2018-12-24T11:14:42.381Z,5.10
2018-12-24T11:19:28.311Z,4.77
2018-12-24T11:24:14.233Z,4.73
2018-12-24T11:29:00.057Z,2.90
2018-12-24T11:33:45.872Z,2.50
2018-12-24T11:38:32.207Z,2.87
2018-12-24T11:43:20.988Z,2.70
2018-12-24T11:48:06.292Z,2.70
2018-12-24T11:52:52.056Z,3.03
2018-12-24T11:57:38.018Z,2.73
2018-12-24T12:02:29.311Z,3.17
2018-12-24T12:07:15.070Z,2.90
2018-12-24T12:12:00.913Z,3.00
2018-12-24T12:16:46.789Z,3.10
2018-12-24T12:21:32.720Z,2.80
2018-12-24T12:26:18.412Z,2.30
2018-12-24T12:31:04.409Z,2.60
2018-12-24T12:35:50.224Z,2.20
2018-12-24T12:40:36.228Z,1.73
2018-12-24T12:45:22.150Z,1.77
2018-12-24T12:50:08.126Z,1.70
2018-12-24T12:54:53.823Z,2.30
2018-12-24T12:59:39.540Z,2.33
2018-12-24T13:04:25.322Z,1.97
2018-12-24T13:09:11.174Z,1.70
2018-12-24T13:13:57.009Z,2.07
2018-12-24T13:18:42.851Z,1.37
2018-12-24T13:23:28.615Z,1.60
2018-12-24T13:28:14.454Z,1.70
2018-12-24T13:33:00.209Z,1.60
2018-12-24T13:37:46.101Z,1.60
2018-12-24T13:42:31.885Z,1.47
2018-12-24T13:47:17.760Z,1.43
2018-12-24T13:52:03.789Z,2.53
2018-12-24T13:56:49.585Z,1.37
2018-12-24T14:01:35.293Z,0.90
2018-12-24T14:06:21.068Z,1.10
2018-12-24T14:11:06.777Z,1.27
2018-12-24T14:15:53.132Z,1.37
2018-12-24T14:20:38.854Z,1.30
2018-12-24T14:25:24.739Z,3.37
2018-12-24T14:30:12.250Z,3.40
2018-12-24T14:34:58.021Z,2.80
2018-12-24T14:39:43.877Z,2.60
2018-12-24T14:44:29.696Z,1.30
2018-12-24T14:49:15.953Z,1.60
2018-12-24T14:54:02.570Z,2.10
2018-12-24T14:58:50.672Z,2.93
2018-12-24T15:03:36.951Z,2.80
2018-12-24T15:08:23.296Z,3.00
2018-12-24T15:13:09.305Z,1.60
2018-12-24T15:17:55.397Z,1.27
2018-12-24T15:22:41.760Z,1.23
2018-12-24T15:27:27.859Z,3.03
2018-12-24T15:32:13.752Z,2.07
2018-12-24T15:37:00.315Z,1.30
2018-12-24T15:41:46.369Z,1.23
2018-12-24T15:46:32.490Z,0.90
2018-12-24T15:51:18.353Z,1.20
2018-12-24T15:56:04.774Z,1.20
2018-12-24T16:00:50.632Z,1.00
2018-12-24T16:05:37.742Z,2.10
2018-12-24T16:10:23.848Z,2.10
2018-12-24T16:15:09.942Z,2.40
2018-12-24T16:19:55.850Z,2.50
2018-12-24T16:24:41.995Z,2.40
2018-12-24T16:29:27.901Z,2.53
2018-12-24T16:34:13.930Z,2.20
2018-12-24T16:38:59.921Z,2.93
2018-12-24T16:43:46.252Z,2.80
2018-12-24T16:48:32.628Z,2.60
2018-12-24T16:53:18.719Z,3.53
2018-12-24T16:58:04.744Z,5.63
2018-12-24T17:02:50.978Z,6.43
2018-12-24T17:07:36.940Z,6.40
2018-12-24T17:12:23.043Z,3.83
2018-12-24T17:17:08.885Z,5.47
2018-12-24T17:21:55.226Z,6.87
2018-12-24T17:26:41.677Z,6.83
2018-12-24T17:31:27.934Z,6.33
2018-12-24T17:36:14.067Z,9.13
2018-12-24T17:41:00.482Z,9.03
2018-12-24T17:45:46.561Z,8.20
2018-12-24T17:50:33.395Z,8.93
2018-12-24T17:55:19.426Z,7.90
2018-12-24T18:00:06.059Z,10.20
2018-12-24T18:04:52.198Z,8.90
2018-12-24T18:09:38.337Z,8.30
2018-12-24T18:14:25.049Z,7.87
2018-12-24T18:19:11.267Z,7.97
2018-12-24T18:23:57.988Z,8.23
2018-12-24T18:28:44.076Z,7.77
2018-12-24T18:33:30.600Z,7.67
2018-12-24T18:38:16.648Z,8.23
2018-12-24T18:43:02.848Z,8.83
2018-12-24T18:47:49.155Z,8.67
2018-12-24T18:52:35.670Z,8.20
2018-12-24T18:57:21.803Z,7.33
2018-12-24T19:02:08.189Z,7.20
2018-12-24T19:06:54.718Z,6.10
2018-12-24T19:11:41.310Z,5.97
2018-12-24T19:16:27.533Z,7.33
2018-12-24T19:21:13.540Z,9.23
2018-12-24T19:26:00.078Z,12.00
2018-12-24T19:30:46.240Z,13.30
2018-12-24T19:35:32.355Z,14.03
2018-12-24T19:40:18.911Z,13.23
2018-12-24T19:45:05.394Z,12.97
2018-12-24T19:49:51.432Z,12.70
2018-12-24T19:54:37.740Z,11.93
2018-12-24T19:59:24.027Z,12.43
2018-12-24T20:04:10.459Z,12.23
2018-12-24T20:08:56.876Z,11.40
2018-12-24T20:13:43.357Z,9.30
2018-12-24T20:18:29.971Z,8.83
2018-12-24T20:23:16.084Z,8.67
2018-12-24T20:28:02.164Z,9.30
2018-12-24T20:32:48.208Z,7.50
2018-12-24T20:37:34.643Z,7.07
2018-12-24T20:42:20.934Z,6.10
2018-12-24T20:47:06.537Z,6.83
2018-12-24T20:51:52.522Z,6.10
2018-12-24T20:56:38.748Z,6.80
2018-12-24T21:01:24.608Z,7.70
2018-12-24T21:06:10.588Z,7.43
2018-12-24T21:10:56.452Z,7.33
2018-12-24T21:15:42.424Z,8.23
2018-12-24T21:20:28.223Z,11.37
2018-12-24T21:25:14.079Z,13.93
2018-12-24T21:29:59.951Z,11.37
2018-12-24T21:34:45.798Z,13.00
2018-12-24T21:39:31.530Z,15.50
2018-12-24T21:44:17.312Z,14.80
2018-12-24T21:49:04.028Z,9.33
2018-12-24T21:53:49.930Z,10.17
2018-12-24T21:58:35.712Z,10.80
2018-12-24T22:03:22.094Z,9.00
2018-12-24T22:08:08.015Z,9.90
2018-12-24T22:12:53.822Z,10.03
2018-12-24T22:17:39.718Z,12.50
2018-12-24T22:22:25.613Z,12.00
2018-12-24T22:27:11.336Z,11.40
2018-12-24T22:31:57.155Z,10.30
2018-12-24T22:36:42.896Z,10.67
2018-12-24T22:41:28.872Z,8.20
2018-12-24T22:46:14.619Z,9.70
2018-12-24T22:51:00.326Z,10.90
2018-12-24T22:55:46.044Z,8.97
2018-12-24T23:00:44.879Z,7.43
2018-12-24T23:05:30.595Z,11.00
2018-12-24T23:10:16.421Z,13.10
2018-12-24T23:15:02.202Z,11.73
2018-12-24T23:19:47.955Z,14.13
2018-12-24T23:24:33.727Z,10.43
2018-12-24T23:29:19.498Z,10.10
2018-12-24T23:34:05.387Z,10.37
2018-12-24T23:38:51.203Z,10.13
2018-12-24T23:43:36.928Z,8.97
2018-12-24T23:48:22.731Z,10.43
2018-12-24T23:53:08.667Z,11.03
2018-12-24T23:57:54.487Z,10.17
